sensor_id;sensor_type;location;lat;lon;timestamp;pressure;altitude;pressure_sealevel;temperature;humidity
54920;BME280;63804;53.120;8.764;2024-02-26T00:01:12;100460.38;;;5.25;83.58
54920;BME280;63804;53.120;8.764;2024-02-26T00:03:39;100456.66;;;5.13;84.37
54920;BME280;63804;53.120;8.764;2024-02-26T00:06:09;100462.91;;;5.42;84.22
54920;BME280;63804;53.120;8.764;2024-02-26T00:08:36;100457.41;;;5.31;83.61
54920;BME280;63804;53.120;8.764;2024-02-26T00:11:04;100462.56;;;5.17;83.75
54920;BME280;63804;53.120;8.764;2024-02-26T00:13:31;100459.66;;;5.37;83.46
54920;BME280;63804;53.120;8.764;2024-02-26T00:15:58;100457.66;;;5.42;82.69
54920;BME280;63804;53.120;8.764;2024-02-26T00:18:25;100451.44;;;5.43;82.38
54920;BME280;63804;53.120;8.764;2024-02-26T00:20:53;100456.13;;;5.38;82.31
54920;BME280;63804;53.120;8.764;2024-02-26T00:23:20;100459.66;;;5.37;82.50
54920;BME280;63804;53.120;8.764;2024-02-26T00:25:48;100456.78;;;5.42;82.49
54920;BME280;63804;53.120;8.764;2024-02-26T00:28:17;100462.22;;;5.38;82.45
54920;BME280;63804;53.120;8.764;2024-02-26T00:30:44;100452.72;;;5.36;82.62
54920;BME280;63804;53.120;8.764;2024-02-26T00:33:11;100449.28;;;5.20;82.97
54920;BME280;63804;53.120;8.764;2024-02-26T00:35:38;100448.06;;;5.41;82.65
54920;BME280;63804;53.120;8.764;2024-02-26T00:38:05;100455.13;;;5.25;82.67
54920;BME280;63804;53.120;8.764;2024-02-26T00:40:33;100451.72;;;5.38;82.13
54920;BME280;63804;53.120;8.764;2024-02-26T00:43:01;100444.28;;;5.31;82.45
54920;BME280;63804;53.120;8.764;2024-02-26T00:45:28;100452.06;;;5.32;82.37
54920;BME280;63804;53.120;8.764;2024-02-26T00:47:55;100452.91;;;5.33;81.82
54920;BME280;63804;53.120;8.764;2024-02-26T00:50:22;100453.06;;;5.30;82.12
54920;BME280;63804;53.120;8.764;2024-02-26T00:52:52;100455.38;;;5.20;82.35
54920;BME280;63804;53.120;8.764;2024-02-26T00:55:19;100443.88;;;5.23;82.20
54920;BME280;63804;53.120;8.764;2024-02-26T00:57:47;100438.25;;;5.29;81.80
54920;BME280;63804;53.120;8.764;2024-02-26T01:00:15;100439.09;;;5.29;81.90
54920;BME280;63804;53.120;8.764;2024-02-26T01:02:42;100443.09;;;5.21;82.04
54920;BME280;63804;53.120;8.764;2024-02-26T01:05:09;100439.44;;;5.07;82.67
54920;BME280;63804;53.120;8.764;2024-02-26T01:07:36;100446.50;;;5.23;82.57
54920;BME280;63804;53.120;8.764;2024-02-26T01:10:04;100439.38;;;5.09;82.51
54920;BME280;63804;53.120;8.764;2024-02-26T01:12:33;100445.97;;;4.84;82.54
54920;BME280;63804;53.120;8.764;2024-02-26T01:15:02;100438.34;;;4.48;83.77
54920;BME280;63804;53.120;8.764;2024-02-26T01:17:30;100447.72;;;4.52;84.33
54920;BME280;63804;53.120;8.764;2024-02-26T01:19:57;100436.94;;;4.90;82.94
54920;BME280;63804;53.120;8.764;2024-02-26T01:22:25;100446.16;;;4.97;81.96
54920;BME280;63804;53.120;8.764;2024-02-26T01:24:52;100440.41;;;4.91;81.82
54920;BME280;63804;53.120;8.764;2024-02-26T01:27:19;100444.28;;;4.99;82.00
54920;BME280;63804;53.120;8.764;2024-02-26T01:29:46;100448.44;;;5.03;81.39
54920;BME280;63804;53.120;8.764;2024-02-26T01:32:14;100446.69;;;5.04;81.82
54920;BME280;63804;53.120;8.764;2024-02-26T01:34:41;100447.09;;;4.96;82.36
54920;BME280;63804;53.120;8.764;2024-02-26T01:37:08;100449.78;;;4.95;82.31
54920;BME280;63804;53.120;8.764;2024-02-26T01:39:36;100445.13;;;5.00;81.69
54920;BME280;63804;53.120;8.764;2024-02-26T01:42:03;100440.66;;;5.02;82.13
54920;BME280;63804;53.120;8.764;2024-02-26T01:44:30;100446.69;;;5.04;81.35
54920;BME280;63804;53.120;8.764;2024-02-26T01:47:01;100454.63;;;4.86;81.98
54920;BME280;63804;53.120;8.764;2024-02-26T01:49:29;100440.91;;;4.97;81.65
54920;BME280;63804;53.120;8.764;2024-02-26T01:51:58;100432.44;;;4.92;80.93
54920;BME280;63804;53.120;8.764;2024-02-26T01:54:26;100448.38;;;4.89;81.28
54920;BME280;63804;53.120;8.764;2024-02-26T01:56:53;100444.22;;;4.85;81.43
54920;BME280;63804;53.120;8.764;2024-02-26T01:59:21;100439.97;;;4.67;82.27
54920;BME280;63804;53.120;8.764;2024-02-26T02:01:52;100449.63;;;4.82;81.84
54920;BME280;63804;53.120;8.764;2024-02-26T02:04:23;100449.53;;;4.68;81.91
54920;BME280;63804;53.120;8.764;2024-02-26T02:06:50;100451.63;;;4.77;82.16
54920;BME280;63804;53.120;8.764;2024-02-26T02:09:19;100443.28;;;4.70;81.85
54920;BME280;63804;53.120;8.764;2024-02-26T02:11:47;100454.53;;;4.72;81.90
54920;BME280;63804;53.120;8.764;2024-02-26T02:14:15;100444.78;;;4.58;82.26
54920;BME280;63804;53.120;8.764;2024-02-26T02:16:43;100463.91;;;4.76;81.43
54920;BME280;63804;53.120;8.764;2024-02-26T02:19:10;100458.66;;;4.76;80.95
54920;BME280;63804;53.120;8.764;2024-02-26T02:21:37;100460.44;;;4.76;81.47
54920;BME280;63804;53.120;8.764;2024-02-26T02:24:04;100459.50;;;4.77;80.68
54920;BME280;63804;53.120;8.764;2024-02-26T02:26:32;100458.59;;;4.62;81.04
54920;BME280;63804;53.120;8.764;2024-02-26T02:28:59;100464.75;;;4.77;80.58
54920;BME280;63804;53.120;8.764;2024-02-26T02:31:27;100460.88;;;4.68;80.28
54920;BME280;63804;53.120;8.764;2024-02-26T02:33:54;100458.34;;;4.67;80.40
54920;BME280;63804;53.120;8.764;2024-02-26T02:36:21;100465.44;;;4.64;80.76
54920;BME280;63804;53.120;8.764;2024-02-26T02:38:52;100468.88;;;4.49;80.86
54920;BME280;63804;53.120;8.764;2024-02-26T02:41:19;100481.81;;;4.19;81.97
54920;BME280;63804;53.120;8.764;2024-02-26T02:43:46;100479.50;;;3.96;83.08
54920;BME280;63804;53.120;8.764;2024-02-26T02:46:14;100487.31;;;3.97;83.02
54920;BME280;63804;53.120;8.764;2024-02-26T02:48:41;100489.75;;;4.00;83.36
54920;BME280;63804;53.120;8.764;2024-02-26T02:51:09;100480.50;;;4.28;82.19
54920;BME280;63804;53.120;8.764;2024-02-26T02:53:39;100473.59;;;4.43;80.99
54920;BME280;63804;53.120;8.764;2024-02-26T02:56:06;100473.22;;;4.33;80.90
54920;BME280;63804;53.120;8.764;2024-02-26T02:58:33;100472.94;;;4.22;81.15
54920;BME280;63804;53.120;8.764;2024-02-26T03:01:00;100481.59;;;4.24;81.19
54920;BME280;63804;53.120;8.764;2024-02-26T03:03:28;100476.19;;;4.43;81.03
54920;BME280;63804;53.120;8.764;2024-02-26T03:05:56;100472.59;;;4.45;80.37
54920;BME280;63804;53.120;8.764;2024-02-26T03:08:24;100487.75;;;4.56;80.42
54920;BME280;63804;53.120;8.764;2024-02-26T03:10:53;100487.09;;;4.35;80.62
54920;BME280;63804;53.120;8.764;2024-02-26T03:13:20;100493.91;;;4.22;81.26
54920;BME280;63804;53.120;8.764;2024-02-26T03:15:47;100499.06;;;4.23;81.21
54920;BME280;63804;53.120;8.764;2024-02-26T03:18:15;100490.59;;;4.35;80.76
54920;BME280;63804;53.120;8.764;2024-02-26T03:20:42;100491.19;;;4.40;80.08
54920;BME280;63804;53.120;8.764;2024-02-26T03:23:10;100497.41;;;4.38;80.19
54920;BME280;63804;53.120;8.764;2024-02-26T03:25:39;100509.38;;;4.44;80.23
54920;BME280;63804;53.120;8.764;2024-02-26T03:28:07;100512.06;;;4.42;80.08
54920;BME280;63804;53.120;8.764;2024-02-26T03:30:34;100515.31;;;4.47;80.02
54920;BME280;63804;53.120;8.764;2024-02-26T03:33:01;100525.00;;;4.45;80.07
54920;BME280;63804;53.120;8.764;2024-02-26T03:35:29;100526.25;;;4.38;80.40
54920;BME280;63804;53.120;8.764;2024-02-26T03:37:57;100528.44;;;4.30;80.60
54920;BME280;63804;53.120;8.764;2024-02-26T03:40:24;100535.75;;;4.23;80.83
54920;BME280;63804;53.120;8.764;2024-02-26T03:42:52;100536.91;;;4.35;80.63
54920;BME280;63804;53.120;8.764;2024-02-26T03:45:20;100538.63;;;4.36;80.54
54920;BME280;63804;53.120;8.764;2024-02-26T03:47:48;100541.22;;;4.36;80.34
54920;BME280;63804;53.120;8.764;2024-02-26T03:50:15;100538.47;;;4.39;80.25
54920;BME280;63804;53.120;8.764;2024-02-26T03:52:43;100553.09;;;4.43;80.37
54920;BME280;63804;53.120;8.764;2024-02-26T03:55:10;100552.56;;;4.36;80.37
54920;BME280;63804;53.120;8.764;2024-02-26T03:57:37;100548.50;;;4.13;81.05
54920;BME280;63804;53.120;8.764;2024-02-26T04:00:05;100551.19;;;4.29;80.87
54920;BME280;63804;53.120;8.764;2024-02-26T04:02:33;100553.16;;;4.42;79.70
54920;BME280;63804;53.120;8.764;2024-02-26T04:05:00;100542.91;;;4.37;80.07
54920;BME280;63804;53.120;8.764;2024-02-26T04:07:28;100553.31;;;4.38;80.30
54920;BME280;63804;53.120;8.764;2024-02-26T04:09:55;100556.88;;;4.37;80.12
54920;BME280;63804;53.120;8.764;2024-02-26T04:12:22;100558.81;;;4.34;80.36
54920;BME280;63804;53.120;8.764;2024-02-26T04:14:49;100559.25;;;4.42;80.21
54920;BME280;63804;53.120;8.764;2024-02-26T04:17:16;100552.16;;;4.44;80.07
54920;BME280;63804;53.120;8.764;2024-02-26T04:19:44;100563.06;;;4.36;80.59
54920;BME280;63804;53.120;8.764;2024-02-26T04:22:11;100568.34;;;4.35;80.51
54920;BME280;63804;53.120;8.764;2024-02-26T04:24:38;100568.66;;;4.46;80.34
54920;BME280;63804;53.120;8.764;2024-02-26T04:27:05;100573.75;;;4.49;80.23
54920;BME280;63804;53.120;8.764;2024-02-26T04:29:36;100573.91;;;4.29;80.70
54920;BME280;63804;53.120;8.764;2024-02-26T04:32:03;100576.84;;;4.40;80.12
54920;BME280;63804;53.120;8.764;2024-02-26T04:34:31;100573.00;;;4.30;80.58
54920;BME280;63804;53.120;8.764;2024-02-26T04:36:59;100572.84;;;4.33;80.56
54920;BME280;63804;53.120;8.764;2024-02-26T04:39:26;100583.03;;;4.39;80.23
54920;BME280;63804;53.120;8.764;2024-02-26T04:41:53;100582.84;;;4.42;80.10
54920;BME280;63804;53.120;8.764;2024-02-26T04:44:20;100587.34;;;4.40;80.09
54920;BME280;63804;53.120;8.764;2024-02-26T04:46:47;100591.66;;;4.41;80.10
54920;BME280;63804;53.120;8.764;2024-02-26T04:49:15;100589.25;;;4.36;80.00
54920;BME280;63804;53.120;8.764;2024-02-26T04:51:45;100589.97;;;4.40;80.30
54920;BME280;63804;53.120;8.764;2024-02-26T04:54:12;100597.56;;;4.27;80.39
54920;BME280;63804;53.120;8.764;2024-02-26T04:56:39;100592.41;;;4.26;80.82
54920;BME280;63804;53.120;8.764;2024-02-26T04:59:07;100606.06;;;4.32;80.67
54920;BME280;63804;53.120;8.764;2024-02-26T05:01:34;100609.84;;;4.27;80.44
54920;BME280;63804;53.120;8.764;2024-02-26T05:04:02;100603.50;;;4.31;80.78
54920;BME280;63804;53.120;8.764;2024-02-26T05:06:30;100606.44;;;4.42;80.16
54920;BME280;63804;53.120;8.764;2024-02-26T05:09:00;100606.22;;;4.29;80.55
54920;BME280;63804;53.120;8.764;2024-02-26T05:11:27;100613.16;;;4.30;79.97
54920;BME280;63804;53.120;8.764;2024-02-26T05:13:54;100618.72;;;4.24;80.71
54920;BME280;63804;53.120;8.764;2024-02-26T05:16:21;100606.75;;;4.19;81.05
54920;BME280;63804;53.120;8.764;2024-02-26T05:18:51;100620.50;;;4.24;80.91
54920;BME280;63804;53.120;8.764;2024-02-26T05:21:19;100630.97;;;4.24;81.05
54920;BME280;63804;53.120;8.764;2024-02-26T05:23:46;100627.28;;;4.28;80.76
54920;BME280;63804;53.120;8.764;2024-02-26T05:26:20;100622.03;;;4.28;80.81
54920;BME280;63804;53.120;8.764;2024-02-26T05:28:48;100622.03;;;4.28;80.65
54920;BME280;63804;53.120;8.764;2024-02-26T05:31:16;100628.63;;;4.35;80.72
54920;BME280;63804;53.120;8.764;2024-02-26T05:33:43;100632.19;;;4.34;80.40
54920;BME280;63804;53.120;8.764;2024-02-26T05:36:20;100636.34;;;4.38;80.94
54920;BME280;63804;53.120;8.764;2024-02-26T05:38:49;100634.81;;;4.34;80.92
54920;BME280;63804;53.120;8.764;2024-02-26T05:41:17;100641.75;;;4.35;80.99
54920;BME280;63804;53.120;8.764;2024-02-26T05:43:50;100641.00;;;4.33;80.94
54920;BME280;63804;53.120;8.764;2024-02-26T05:46:18;100640.16;;;4.32;81.15
54920;BME280;63804;53.120;8.764;2024-02-26T05:48:52;100637.28;;;4.37;81.04
54920;BME280;63804;53.120;8.764;2024-02-26T05:51:20;100646.16;;;4.34;81.25
54920;BME280;63804;53.120;8.764;2024-02-26T05:53:47;100644.22;;;4.21;81.66
54920;BME280;63804;53.120;8.764;2024-02-26T05:56:22;100638.28;;;4.17;81.69
54920;BME280;63804;53.120;8.764;2024-02-26T05:58:52;100645.91;;;4.22;82.13
54920;BME280;63804;53.120;8.764;2024-02-26T06:01:20;100642.22;;;4.26;81.70
54920;BME280;63804;53.120;8.764;2024-02-26T06:03:47;100647.31;;;4.29;81.99
54920;BME280;63804;53.120;8.764;2024-02-26T06:06:14;100647.31;;;4.29;81.72
54920;BME280;63804;53.120;8.764;2024-02-26T06:08:43;100645.75;;;4.42;81.01
54920;BME280;63804;53.120;8.764;2024-02-26T06:11:10;100644.59;;;4.30;81.67
54920;BME280;63804;53.120;8.764;2024-02-26T06:13:38;100644.59;;;4.30;81.55
54920;BME280;63804;53.120;8.764;2024-02-26T06:16:05;100652.69;;;4.26;81.75
54920;BME280;63804;53.120;8.764;2024-02-26T06:18:32;100660.09;;;4.18;82.55
54920;BME280;63804;53.120;8.764;2024-02-26T06:21:00;100662.06;;;4.31;81.91
54920;BME280;63804;53.120;8.764;2024-02-26T06:23:30;100666.97;;;4.37;81.47
54920;BME280;63804;53.120;8.764;2024-02-26T06:25:57;100667.03;;;4.19;82.35
54920;BME280;63804;53.120;8.764;2024-02-26T06:28:24;100667.28;;;4.31;82.18
54920;BME280;63804;53.120;8.764;2024-02-26T06:30:52;100667.28;;;4.31;81.90
54920;BME280;63804;53.120;8.764;2024-02-26T06:33:19;100671.47;;;4.35;82.08
54920;BME280;63804;53.120;8.764;2024-02-26T06:35:47;100675.06;;;4.33;82.38
54920;BME280;63804;53.120;8.764;2024-02-26T06:38:14;100674.28;;;4.31;81.79
54920;BME280;63804;53.120;8.764;2024-02-26T06:40:42;100679.75;;;4.26;82.47
54920;BME280;63804;53.120;8.764;2024-02-26T06:43:09;100689.94;;;4.32;82.54
54920;BME280;63804;53.120;8.764;2024-02-26T06:45:36;100692.63;;;4.31;82.34
54920;BME280;63804;53.120;8.764;2024-02-26T06:48:03;100695.09;;;4.34;82.52
54920;BME280;63804;53.120;8.764;2024-02-26T06:50:31;100698.13;;;4.44;82.34
54920;BME280;63804;53.120;8.764;2024-02-26T06:52:58;100699.31;;;4.55;81.72
54920;BME280;63804;53.120;8.764;2024-02-26T06:55:25;100703.06;;;4.50;81.55
54920;BME280;63804;53.120;8.764;2024-02-26T06:57:52;100705.16;;;4.43;81.87
54920;BME280;63804;53.120;8.764;2024-02-26T07:00:20;100710.47;;;4.42;82.36
54920;BME280;63804;53.120;8.764;2024-02-26T07:02:47;100724.03;;;4.50;81.98
54920;BME280;63804;53.120;8.764;2024-02-26T07:05:17;100720.28;;;4.55;81.82
54920;BME280;63804;53.120;8.764;2024-02-26T07:07:44;100722.91;;;4.55;81.87
54920;BME280;63804;53.120;8.764;2024-02-26T07:10:11;100720.66;;;4.48;82.07
54920;BME280;63804;53.120;8.764;2024-02-26T07:12:39;100731.53;;;4.57;81.87
54920;BME280;63804;53.120;8.764;2024-02-26T07:15:09;100730.41;;;4.63;81.80
54920;BME280;63804;53.120;8.764;2024-02-26T07:17:36;100734.09;;;4.59;81.63
54920;BME280;63804;53.120;8.764;2024-02-26T07:20:04;100743.75;;;4.58;81.60
54920;BME280;63804;53.120;8.764;2024-02-26T07:22:36;100743.28;;;4.68;81.58
54920;BME280;63804;53.120;8.764;2024-02-26T07:25:03;100746.22;;;4.79;81.16
54920;BME280;63804;53.120;8.764;2024-02-26T07:27:30;100747.28;;;4.75;81.20
54920;BME280;63804;53.120;8.764;2024-02-26T07:29:57;100748.06;;;4.77;80.83
54920;BME280;63804;53.120;8.764;2024-02-26T07:32:24;100747.91;;;4.80;80.91
54920;BME280;63804;53.120;8.764;2024-02-26T07:34:53;100749.91;;;4.75;81.07
54920;BME280;63804;53.120;8.764;2024-02-26T07:37:20;100743.50;;;4.80;80.90
54920;BME280;63804;53.120;8.764;2024-02-26T07:39:47;100751.00;;;4.88;80.61
54920;BME280;63804;53.120;8.764;2024-02-26T07:42:14;100754.50;;;4.88;80.47
54920;BME280;63804;53.120;8.764;2024-02-26T07:44:42;100744.06;;;4.87;80.60
54920;BME280;63804;53.120;8.764;2024-02-26T07:47:10;100754.00;;;4.98;80.61
54920;BME280;63804;53.120;8.764;2024-02-26T07:49:37;100760.72;;;5.03;80.12
54920;BME280;63804;53.120;8.764;2024-02-26T07:52:05;100759.03;;;5.02;80.32
54920;BME280;63804;53.120;8.764;2024-02-26T07:54:33;100758.94;;;4.86;80.42
54920;BME280;63804;53.120;8.764;2024-02-26T07:57:00;100769.06;;;4.94;80.65
54920;BME280;63804;53.120;8.764;2024-02-26T07:59:29;100765.22;;;5.01;80.59
54920;BME280;63804;53.120;8.764;2024-02-26T08:01:56;100760.72;;;5.03;80.73
54920;BME280;63804;53.120;8.764;2024-02-26T08:04:25;100760.91;;;5.00;80.73
54920;BME280;63804;53.120;8.764;2024-02-26T08:06:54;100763.03;;;5.09;80.67
54920;BME280;63804;53.120;8.764;2024-02-26T08:09:21;100770.91;;;5.09;80.72
54920;BME280;63804;53.120;8.764;2024-02-26T08:11:49;100749.91;;;5.09;80.31
54920;BME280;63804;53.120;8.764;2024-02-26T08:14:16;100765.28;;;5.17;80.49
54920;BME280;63804;53.120;8.764;2024-02-26T08:16:43;100770.22;;;5.23;80.03
54920;BME280;63804;53.120;8.764;2024-02-26T08:19:10;100769.91;;;5.12;80.57
54920;BME280;63804;53.120;8.764;2024-02-26T08:21:41;100772.44;;;5.13;80.35
54920;BME280;63804;53.120;8.764;2024-02-26T08:24:09;100772.00;;;5.23;80.24
54920;BME280;63804;53.120;8.764;2024-02-26T08:26:36;100778.69;;;5.11;80.58
54920;BME280;63804;53.120;8.764;2024-02-26T08:29:03;100773.59;;;5.25;80.45
54920;BME280;63804;53.120;8.764;2024-02-26T08:31:33;100787.41;;;5.29;80.20
54920;BME280;63804;53.120;8.764;2024-02-26T08:34:00;100771.81;;;5.26;80.09
54920;BME280;63804;53.120;8.764;2024-02-26T08:36:28;100786.66;;;5.27;80.58
54920;BME280;63804;53.120;8.764;2024-02-26T08:38:55;100794.38;;;5.30;80.27
54920;BME280;63804;53.120;8.764;2024-02-26T08:41:23;100796.09;;;5.31;80.35
54920;BME280;63804;53.120;8.764;2024-02-26T08:43:50;100788.81;;;5.36;80.07
54920;BME280;63804;53.120;8.764;2024-02-26T08:46:17;100799.63;;;5.30;80.52
54920;BME280;63804;53.120;8.764;2024-02-26T08:48:44;100806.97;;;5.23;80.71
54920;BME280;63804;53.120;8.764;2024-02-26T08:51:12;100803.88;;;5.32;80.87
54920;BME280;63804;53.120;8.764;2024-02-26T08:53:42;100803.47;;;5.40;80.19
54920;BME280;63804;53.120;8.764;2024-02-26T08:56:13;100799.63;;;5.30;80.68
54920;BME280;63804;53.120;8.764;2024-02-26T08:58:45;100807.09;;;5.37;80.82
54920;BME280;63804;53.120;8.764;2024-02-26T09:01:15;100808.25;;;5.49;80.36
54920;BME280;63804;53.120;8.764;2024-02-26T09:03:43;100804.88;;;5.47;80.44
54920;BME280;63804;53.120;8.764;2024-02-26T09:06:11;100807.34;;;5.50;80.48
54920;BME280;63804;53.120;8.764;2024-02-26T09:08:38;100815.81;;;5.55;79.95
54920;BME280;63804;53.120;8.764;2024-02-26T09:11:05;100813.28;;;5.54;80.10
54920;BME280;63804;53.120;8.764;2024-02-26T09:13:33;100817.50;;;5.56;80.46
54920;BME280;63804;53.120;8.764;2024-02-26T09:16:00;100815.31;;;5.65;80.33
54920;BME280;63804;53.120;8.764;2024-02-26T09:18:27;100812.25;;;5.56;80.35
54920;BME280;63804;53.120;8.764;2024-02-26T09:20:56;100823.19;;;5.65;80.27
54920;BME280;63804;53.120;8.764;2024-02-26T09:23:23;100823.19;;;5.65;80.51
54920;BME280;63804;53.120;8.764;2024-02-26T09:25:50;100825.94;;;5.63;80.66
54920;BME280;63804;53.120;8.764;2024-02-26T09:28:17;100839.03;;;5.80;80.22
54920;BME280;63804;53.120;8.764;2024-02-26T09:30:44;100826.06;;;5.77;80.34
54920;BME280;63804;53.120;8.764;2024-02-26T09:33:13;100835.78;;;5.93;80.19
54920;BME280;63804;53.120;8.764;2024-02-26T09:35:41;100833.00;;;5.78;80.80
54920;BME280;63804;53.120;8.764;2024-02-26T09:38:08;100836.69;;;5.92;80.46
54920;BME280;63804;53.120;8.764;2024-02-26T09:40:36;100830.28;;;5.97;79.95
54920;BME280;63804;53.120;8.764;2024-02-26T09:43:05;100828.44;;;5.99;79.76
54920;BME280;63804;53.120;8.764;2024-02-26T09:45:32;100834.19;;;6.06;79.87
54920;BME280;63804;53.120;8.764;2024-02-26T09:48:01;100842.44;;;6.16;80.00
54920;BME280;63804;53.120;8.764;2024-02-26T09:50:31;100831.59;;;6.22;79.58
54920;BME280;63804;53.120;8.764;2024-02-26T09:52:59;100840.09;;;6.27;79.67
54920;BME280;63804;53.120;8.764;2024-02-26T09:55:29;100843.81;;;6.39;79.85
54920;BME280;63804;53.120;8.764;2024-02-26T09:57:57;100852.25;;;6.45;79.45
54920;BME280;63804;53.120;8.764;2024-02-26T10:00:27;100850.94;;;6.52;79.34
54920;BME280;63804;53.120;8.764;2024-02-26T10:03:06;100856.66;;;6.61;79.15
54920;BME280;63804;53.120;8.764;2024-02-26T10:05:34;100857.13;;;6.67;79.27
54920;BME280;63804;53.120;8.764;2024-02-26T10:08:04;100859.19;;;6.78;78.56
54920;BME280;63804;53.120;8.764;2024-02-26T10:10:32;100860.19;;;6.91;78.79
54920;BME280;63804;53.120;8.764;2024-02-26T10:13:00;100859.25;;;6.92;78.74
54920;BME280;63804;53.120;8.764;2024-02-26T10:15:28;100871.72;;;7.04;78.54
54920;BME280;63804;53.120;8.764;2024-02-26T10:17:55;100866.69;;;7.16;77.97
54920;BME280;63804;53.120;8.764;2024-02-26T10:20:23;100866.56;;;7.17;77.98
54920;BME280;63804;53.120;8.764;2024-02-26T10:22:51;100869.72;;;7.24;78.94
54920;BME280;63804;53.120;8.764;2024-02-26T10:25:19;100861.53;;;7.28;78.31
54920;BME280;63804;53.120;8.764;2024-02-26T10:27:47;100875.75;;;7.26;78.25
54920;BME280;63804;53.120;8.764;2024-02-26T10:30:21;100874.13;;;7.23;78.49
54920;BME280;63804;53.120;8.764;2024-02-26T10:32:49;100872.06;;;7.28;78.83
54920;BME280;63804;53.120;8.764;2024-02-26T10:35:18;100877.44;;;7.27;78.77
54920;BME280;63804;53.120;8.764;2024-02-26T10:37:48;100868.03;;;7.23;78.74
54920;BME280;63804;53.120;8.764;2024-02-26T10:40:16;100876.16;;;7.34;78.85
54920;BME280;63804;53.120;8.764;2024-02-26T10:42:43;100879.13;;;7.28;78.70
54920;BME280;63804;53.120;8.764;2024-02-26T10:45:12;100881.75;;;7.28;78.53
54920;BME280;63804;53.120;8.764;2024-02-26T10:47:40;100883.50;;;7.29;78.51
54920;BME280;63804;53.120;8.764;2024-02-26T10:50:09;100883.50;;;7.29;78.77
54920;BME280;63804;53.120;8.764;2024-02-26T10:52:37;100882.44;;;7.31;78.67
54920;BME280;63804;53.120;8.764;2024-02-26T10:55:05;100893.25;;;7.27;78.63
54920;BME280;63804;53.120;8.764;2024-02-26T10:57:39;100887.03;;;7.28;78.84
54920;BME280;63804;53.120;8.764;2024-02-26T11:00:08;100890.63;;;7.27;79.02
54920;BME280;63804;53.120;8.764;2024-02-26T11:02:41;100906.66;;;7.38;78.71
54920;BME280;63804;53.120;8.764;2024-02-26T11:05:08;100895.84;;;7.43;78.59
54920;BME280;63804;53.120;8.764;2024-02-26T11:07:36;100901.59;;;7.49;78.94
54920;BME280;63804;53.120;8.764;2024-02-26T11:10:05;100895.50;;;7.49;78.57
54920;BME280;63804;53.120;8.764;2024-02-26T11:12:35;100904.63;;;7.57;78.51
54920;BME280;63804;53.120;8.764;2024-02-26T11:15:05;100905.81;;;7.68;78.63
54920;BME280;63804;53.120;8.764;2024-02-26T11:17:33;100906.19;;;7.76;77.98
54920;BME280;63804;53.120;8.764;2024-02-26T11:20:02;100913.06;;;7.78;77.82
54920;BME280;63804;53.120;8.764;2024-02-26T11:22:30;100912.88;;;7.81;77.82
54920;BME280;63804;53.120;8.764;2024-02-26T11:24:57;100914.00;;;7.77;77.51
54920;BME280;63804;53.120;8.764;2024-02-26T11:27:33;100915.88;;;7.75;77.69
54920;BME280;63804;53.120;8.764;2024-02-26T11:30:02;100910.69;;;7.74;77.98
54920;BME280;63804;53.120;8.764;2024-02-26T11:32:32;100911.34;;;7.77;77.99
54920;BME280;63804;53.120;8.764;2024-02-26T11:35:04;100920.22;;;7.76;77.99
54920;BME280;63804;53.120;8.764;2024-02-26T11:37:32;100917.88;;;7.86;77.86
54920;BME280;63804;53.120;8.764;2024-02-26T11:40:10;100915.88;;;7.90;77.47
54920;BME280;63804;53.120;8.764;2024-02-26T11:42:43;100913.63;;;7.84;77.81
54920;BME280;63804;53.120;8.764;2024-02-26T11:48:00;100911.28;;;7.79;78.15
54920;BME280;63804;53.120;8.764;2024-02-26T11:50:35;100903.38;;;7.93;77.65
54920;BME280;63804;53.120;8.764;2024-02-26T11:53:31;100910.75;;;8.02;76.91
54920;BME280;63804;53.120;8.764;2024-02-26T11:58:44;100906.81;;;8.10;76.87
54920;BME280;63804;53.120;8.764;2024-02-26T12:01:37;100922.63;;;8.10;76.28
54920;BME280;63804;53.120;8.764;2024-02-26T12:04:06;100927.78;;;8.11;76.84
54920;BME280;63804;53.120;8.764;2024-02-26T12:07:00;100924.44;;;8.38;75.24
54920;BME280;63804;53.120;8.764;2024-02-26T12:09:38;100928.38;;;8.30;75.35
54920;BME280;63804;53.120;8.764;2024-02-26T12:12:07;100925.91;;;8.27;75.58
54920;BME280;63804;53.120;8.764;2024-02-26T12:17:23;100932.50;;;8.35;75.58
54920;BME280;63804;53.120;8.764;2024-02-26T12:19:53;100942.41;;;8.31;75.91
54920;BME280;63804;53.120;8.764;2024-02-26T12:22:23;100940.16;;;8.25;76.09
54920;BME280;63804;53.120;8.764;2024-02-26T12:25:00;100947.41;;;8.36;75.35
54920;BME280;63804;53.120;8.764;2024-02-26T12:27:30;100950.34;;;8.45;74.96
54920;BME280;63804;53.120;8.764;2024-02-26T12:29:57;100955.44;;;8.48;74.92
54920;BME280;63804;53.120;8.764;2024-02-26T12:32:24;100948.97;;;8.40;75.27
54920;BME280;63804;53.120;8.764;2024-02-26T12:34:52;100951.59;;;8.40;75.67
54920;BME280;63804;53.120;8.764;2024-02-26T12:37:19;100957.91;;;8.51;75.38
54920;BME280;63804;53.120;8.764;2024-02-26T12:39:46;100955.94;;;8.55;75.32
54920;BME280;63804;53.120;8.764;2024-02-26T12:42:14;100951.31;;;8.59;75.38
54920;BME280;63804;53.120;8.764;2024-02-26T12:44:41;100962.06;;;8.56;75.07
54920;BME280;63804;53.120;8.764;2024-02-26T12:47:09;100963.94;;;8.53;75.02
54920;BME280;63804;53.120;8.764;2024-02-26T12:49:37;100963.25;;;8.50;75.20
54920;BME280;63804;53.120;8.764;2024-02-26T12:52:05;100975.31;;;8.54;75.59
54920;BME280;63804;53.120;8.764;2024-02-26T12:54:33;100959.59;;;8.52;75.42
54920;BME280;63804;53.120;8.764;2024-02-26T12:57:02;100973.06;;;8.62;75.22
54920;BME280;63804;53.120;8.764;2024-02-26T12:59:31;100980.13;;;8.62;75.40
54920;BME280;63804;53.120;8.764;2024-02-26T13:01:58;100980.97;;;8.62;74.69
54920;BME280;63804;53.120;8.764;2024-02-26T13:04:28;100983.44;;;8.65;74.45
54920;BME280;63804;53.120;8.764;2024-02-26T13:06:59;100977.13;;;8.53;74.68
54920;BME280;63804;53.120;8.764;2024-02-26T13:09:34;100982.41;;;8.53;74.93
54920;BME280;63804;53.120;8.764;2024-02-26T13:12:07;100983.44;;;8.65;74.78
54920;BME280;63804;53.120;8.764;2024-02-26T13:14:35;100989.19;;;8.58;74.48